Terminal Aerodrome Forecast
Issued by NWS

Home | Current Version | Previous Version | Text Only | Print | Product List | Glossary Off
Versions: 1 2 3 4 5 6 7 8 9 10 11 12 13 14 15 16 17 18 19 20 21 22 23 24 25 26 27 28 29

000
FTUS43 KABR 171348 AAA
TAFMBG
TAF AMD
KMBG 171348Z 1714/1812 31008KT P6SM BKN020 BKN029
     FM171700 32012KT P6SM SCT250
     FM180200 16004KT P6SM BKN140
     FM180700 12012KT P6SM VCSH OVC060 WS020/17040KT=

USA.gov is the U.S. government's official web portal to all federal, state and local government web resources and services.